sensor_id;sensor_type;location;lat;lon;timestamp;pressure;altitude;pressure_sealevel;temperature;humidity
64189;BME280;50493;50.970;10.082;2023-03-12T00:01:22;99001.88;;;-1.41;72.22
64189;BME280;50493;50.970;10.082;2023-03-12T00:03:48;99003.53;;;-1.43;71.83
64189;BME280;50493;50.970;10.082;2023-03-12T00:06:15;99003.38;;;-1.51;72.66
64189;BME280;50493;50.970;10.082;2023-03-12T00:08:41;98993.78;;;-1.60;72.55
64189;BME280;50493;50.970;10.082;2023-03-12T00:11:08;99013.50;;;-1.57;72.50
64189;BME280;50493;50.970;10.082;2023-03-12T00:13:33;99013.47;;;-1.59;72.32
64189;BME280;50493;50.970;10.082;2023-03-12T00:16:03;99007.59;;;-1.53;72.13
64189;BME280;50493;50.970;10.082;2023-03-12T00:18:29;99007.66;;;-1.50;71.34
64189;BME280;50493;50.970;10.082;2023-03-12T00:20:54;99014.47;;;-1.52;71.67
64189;BME280;50493;50.970;10.082;2023-03-12T00:23:21;99017.00;;;-1.54;71.92
64189;BME280;50493;50.970;10.082;2023-03-12T00:25:47;99011.88;;;-1.54;71.68
64189;BME280;50493;50.970;10.082;2023-03-12T00:28:12;99016.22;;;-1.50;71.54
64189;BME280;50493;50.970;10.082;2023-03-12T00:30:37;99017.84;;;-1.53;72.16
64189;BME280;50493;50.970;10.082;2023-03-12T00:33:04;99012.72;;;-1.53;71.70
64189;BME280;50493;50.970;10.082;2023-03-12T00:35:30;99022.97;;;-1.53;71.68
64189;BME280;50493;50.970;10.082;2023-03-12T00:37:55;99016.13;;;-1.54;71.85
64189;BME280;50493;50.970;10.082;2023-03-12T00:40:21;99018.63;;;-1.57;71.69
64189;BME280;50493;50.970;10.082;2023-03-12T00:42:47;99022.19;;;-1.51;71.30
64189;BME280;50493;50.970;10.082;2023-03-12T00:45:12;99021.31;;;-1.51;70.99
64189;BME280;50493;50.970;10.082;2023-03-12T00:47:38;99014.56;;;-1.46;70.64
64189;BME280;50493;50.970;10.082;2023-03-12T00:50:04;99009.44;;;-1.46;70.72
64189;BME280;50493;50.970;10.082;2023-03-12T00:52:29;99006.09;;;-1.42;70.36
64189;BME280;50493;50.970;10.082;2023-03-12T00:54:55;99004.41;;;-1.43;69.93
64189;BME280;50493;50.970;10.082;2023-03-12T00:57:24;99007.78;;;-1.44;70.29
64189;BME280;50493;50.970;10.082;2023-03-12T00:59:49;99004.97;;;-1.56;70.60
64189;BME280;50493;50.970;10.082;2023-03-12T01:02:15;98999.81;;;-1.58;70.47
64189;BME280;50493;50.970;10.082;2023-03-12T01:04:40;99004.88;;;-1.59;70.54
64189;BME280;50493;50.970;10.082;2023-03-12T01:07:05;99011.88;;;-1.54;69.86
64189;BME280;50493;50.970;10.082;2023-03-12T01:09:31;99001.66;;;-1.52;70.19
64189;BME280;50493;50.970;10.082;2023-03-12T01:11:56;99004.06;;;-1.58;70.44
64189;BME280;50493;50.970;10.082;2023-03-12T01:14:23;99009.13;;;-1.61;70.31
64189;BME280;50493;50.970;10.082;2023-03-12T01:16:49;99004.06;;;-1.58;70.64
64189;BME280;50493;50.970;10.082;2023-03-12T01:19:14;99002.41;;;-1.56;70.18
64189;BME280;50493;50.970;10.082;2023-03-12T01:21:39;99005.19;;;-1.47;69.57
64189;BME280;50493;50.970;10.082;2023-03-12T01:24:06;99002.66;;;-1.44;69.10
64189;BME280;50493;50.970;10.082;2023-03-12T01:26:31;98989.03;;;-1.43;68.61
64189;BME280;50493;50.970;10.082;2023-03-12T01:28:57;98990.38;;;-1.60;69.75
64189;BME280;50493;50.970;10.082;2023-03-12T01:31:23;98988.69;;;-1.58;69.62
64189;BME280;50493;50.970;10.082;2023-03-12T01:33:49;98989.38;;;-1.67;69.82
64189;BME280;50493;50.970;10.082;2023-03-12T01:36:17;98985.03;;;-1.70;70.04
64189;BME280;50493;50.970;10.082;2023-03-12T01:38:43;98981.66;;;-1.69;70.14
64189;BME280;50493;50.970;10.082;2023-03-12T01:41:08;98983.31;;;-1.71;69.96
64189;BME280;50493;50.970;10.082;2023-03-12T01:43:35;98992.06;;;-1.59;69.54
64189;BME280;50493;50.970;10.082;2023-03-12T01:46:05;98988.69;;;-1.58;69.43
64189;BME280;50493;50.970;10.082;2023-03-12T01:48:40;98991.19;;;-1.61;69.70
64189;BME280;50493;50.970;10.082;2023-03-12T01:51:08;98991.38;;;-1.54;69.21
64189;BME280;50493;50.970;10.082;2023-03-12T01:53:34;98995.69;;;-1.51;68.94
64189;BME280;50493;50.970;10.082;2023-03-12T01:56:01;98989.78;;;-1.47;69.10
64189;BME280;50493;50.970;10.082;2023-03-12T01:58:29;98988.09;;;-1.46;68.90
64189;BME280;50493;50.970;10.082;2023-03-12T02:00:55;98986.44;;;-1.43;68.48
64189;BME280;50493;50.970;10.082;2023-03-12T02:03:20;98983.13;;;-1.39;67.91
64189;BME280;50493;50.970;10.082;2023-03-12T02:05:50;98981.41;;;-1.38;68.29
64189;BME280;50493;50.970;10.082;2023-03-12T02:08:17;98984.78;;;-1.39;68.25
64189;BME280;50493;50.970;10.082;2023-03-12T02:10:43;98982.22;;;-1.41;68.60
64189;BME280;50493;50.970;10.082;2023-03-12T02:13:09;98984.75;;;-1.42;67.84
64189;BME280;50493;50.970;10.082;2023-03-12T02:15:36;98984.59;;;-1.49;68.37
64189;BME280;50493;50.970;10.082;2023-03-12T02:18:02;98982.00;;;-1.50;68.09
64189;BME280;50493;50.970;10.082;2023-03-12T02:20:33;98982.16;;;-1.44;67.91
64189;BME280;50493;50.970;10.082;2023-03-12T02:23:05;98981.41;;;-1.38;67.87
64189;BME280;50493;50.970;10.082;2023-03-12T02:25:36;98984.13;;;-1.30;67.39
64189;BME280;50493;50.970;10.082;2023-03-12T02:28:05;98981.50;;;-1.34;67.55
64189;BME280;50493;50.970;10.082;2023-03-12T02:30:33;98973.97;;;-1.24;67.11
64189;BME280;50493;50.970;10.082;2023-03-12T02:33:04;98985.97;;;-1.23;66.94
64189;BME280;50493;50.970;10.082;2023-03-12T02:35:29;98984.28;;;-1.23;66.93
64189;BME280;50493;50.970;10.082;2023-03-12T02:37:56;98986.72;;;-1.29;67.29
64189;BME280;50493;50.970;10.082;2023-03-12T02:40:23;98979.91;;;-1.27;66.99
64189;BME280;50493;50.970;10.082;2023-03-12T02:42:53;98975.31;;;-0.99;64.44
64189;BME280;50493;50.970;10.082;2023-03-12T02:45:19;98970.91;;;-1.08;66.01
64189;BME280;50493;50.970;10.082;2023-03-12T02:47:44;98974.97;;;-1.18;66.32
64189;BME280;50493;50.970;10.082;2023-03-12T02:50:10;98967.00;;;-1.32;66.98
64189;BME280;50493;50.970;10.082;2023-03-12T02:52:35;98973.56;;;-1.46;67.83
64189;BME280;50493;50.970;10.082;2023-03-12T02:55:02;98988.16;;;-1.42;67.53
64189;BME280;50493;50.970;10.082;2023-03-12T02:57:28;98991.06;;;-1.26;66.76
64189;BME280;50493;50.970;10.082;2023-03-12T02:59:55;98980.78;;;-1.26;66.57
64189;BME280;50493;50.970;10.082;2023-03-12T03:02:20;98978.22;;;-1.26;66.33
64189;BME280;50493;50.970;10.082;2023-03-12T03:04:45;98978.19;;;-1.28;66.74
64189;BME280;50493;50.970;10.082;2023-03-12T03:07:11;98971.53;;;-1.18;66.18
64189;BME280;50493;50.970;10.082;2023-03-12T03:09:36;98974.06;;;-1.21;65.68
64189;BME280;50493;50.970;10.082;2023-03-12T03:12:02;98981.78;;;-1.20;66.09
64189;BME280;50493;50.970;10.082;2023-03-12T03:14:27;98983.16;;;-1.36;66.85
64189;BME280;50493;50.970;10.082;2023-03-12T03:16:54;98979.84;;;-1.32;66.46
64189;BME280;50493;50.970;10.082;2023-03-12T03:19:19;98984.41;;;-1.15;65.66
64189;BME280;50493;50.970;10.082;2023-03-12T03:21:45;98977.81;;;-1.04;65.39
64189;BME280;50493;50.970;10.082;2023-03-12T03:24:10;98976.06;;;-1.05;65.24
64189;BME280;50493;50.970;10.082;2023-03-12T03:26:36;98971.91;;;-1.00;65.16
64189;BME280;50493;50.970;10.082;2023-03-12T03:29:02;98972.53;;;-1.10;65.22
64189;BME280;50493;50.970;10.082;2023-03-12T03:31:27;98974.94;;;-1.19;66.03
64189;BME280;50493;50.970;10.082;2023-03-12T03:33:54;98975.66;;;-1.26;65.90
64189;BME280;50493;50.970;10.082;2023-03-12T03:36:19;98974.88;;;-1.22;65.91
64189;BME280;50493;50.970;10.082;2023-03-12T03:38:47;98983.75;;;-1.06;65.31
64189;BME280;50493;50.970;10.082;2023-03-12T03:41:15;98981.16;;;-1.08;65.34
64189;BME280;50493;50.970;10.082;2023-03-12T03:43:40;98981.25;;;-1.02;64.82
64189;BME280;50493;50.970;10.082;2023-03-12T03:46:06;98981.19;;;-1.05;64.89
64189;BME280;50493;50.970;10.082;2023-03-12T03:48:31;98979.59;;;-1.00;64.74
64189;BME280;50493;50.970;10.082;2023-03-12T03:51:00;98974.56;;;-0.93;64.56
64189;BME280;50493;50.970;10.082;2023-03-12T03:53:26;98983.09;;;-0.94;64.21
64189;BME280;50493;50.970;10.082;2023-03-12T03:55:51;98973.84;;;-0.86;64.01
64189;BME280;50493;50.970;10.082;2023-03-12T03:58:16;98978.03;;;-0.91;63.77
64189;BME280;50493;50.970;10.082;2023-03-12T04:00:43;98977.94;;;-0.96;64.18
64189;BME280;50493;50.970;10.082;2023-03-12T04:03:09;98975.25;;;-1.02;64.43
64189;BME280;50493;50.970;10.082;2023-03-12T04:05:34;98975.16;;;-1.07;64.51
64189;BME280;50493;50.970;10.082;2023-03-12T04:08:01;98979.50;;;-1.03;64.81
64189;BME280;50493;50.970;10.082;2023-03-12T04:10:27;98978.06;;;-0.88;63.96
64189;BME280;50493;50.970;10.082;2023-03-12T04:12:53;98974.63;;;-0.90;63.86
64189;BME280;50493;50.970;10.082;2023-03-12T04:15:19;98969.09;;;-1.12;64.65
64189;BME280;50493;50.970;10.082;2023-03-12T04:17:45;98970.59;;;-1.23;65.49
64189;BME280;50493;50.970;10.082;2023-03-12T04:20:11;98974.16;;;-1.15;65.16
64189;BME280;50493;50.970;10.082;2023-03-12T04:22:36;98969.16;;;-1.09;64.46
64189;BME280;50493;50.970;10.082;2023-03-12T04:25:04;98963.31;;;-1.00;64.03
64189;BME280;50493;50.970;10.082;2023-03-12T04:27:31;98968.16;;;-1.16;64.44
64189;BME280;50493;50.970;10.082;2023-03-12T04:29:56;98962.06;;;-1.22;64.77
64189;BME280;50493;50.970;10.082;2023-03-12T04:32:22;98961.25;;;-1.20;64.86
64189;BME280;50493;50.970;10.082;2023-03-12T04:34:47;98958.53;;;-1.27;64.81
64189;BME280;50493;50.970;10.082;2023-03-12T04:37:13;98956.72;;;-1.33;65.33
64189;BME280;50493;50.970;10.082;2023-03-12T04:39:38;98960.13;;;-1.33;65.34
64189;BME280;50493;50.970;10.082;2023-03-12T04:42:05;98956.69;;;-1.35;65.54
64189;BME280;50493;50.970;10.082;2023-03-12T04:44:31;98950.88;;;-1.26;65.30
64189;BME280;50493;50.970;10.082;2023-03-12T04:46:56;98953.03;;;-1.46;65.79
64189;BME280;50493;50.970;10.082;2023-03-12T04:49:22;98954.53;;;-1.57;66.35
64189;BME280;50493;50.970;10.082;2023-03-12T04:51:47;98955.78;;;-1.37;65.26
64189;BME280;50493;50.970;10.082;2023-03-12T04:54:13;98956.63;;;-1.38;65.50
64189;BME280;50493;50.970;10.082;2023-03-12T04:56:38;98963.66;;;-1.27;65.10
64189;BME280;50493;50.970;10.082;2023-03-12T04:59:05;98956.31;;;-1.10;64.29
64189;BME280;50493;50.970;10.082;2023-03-12T05:01:32;98950.25;;;-1.12;64.22
64189;BME280;50493;50.970;10.082;2023-03-12T05:03:58;98955.91;;;-1.32;65.13
64189;BME280;50493;50.970;10.082;2023-03-12T05:06:24;98960.50;;;-1.14;64.40
64189;BME280;50493;50.970;10.082;2023-03-12T05:08:50;98956.34;;;-1.07;64.00
64189;BME280;50493;50.970;10.082;2023-03-12T05:11:16;98957.28;;;-1.04;64.06
64189;BME280;50493;50.970;10.082;2023-03-12T05:13:42;98959.84;;;-1.04;63.81
64189;BME280;50493;50.970;10.082;2023-03-12T05:16:09;98945.72;;;-0.80;62.34
64189;BME280;50493;50.970;10.082;2023-03-12T05:18:35;98942.19;;;-0.85;62.17
64189;BME280;50493;50.970;10.082;2023-03-12T05:21:02;98947.22;;;-0.91;61.98
64189;BME280;50493;50.970;10.082;2023-03-12T05:23:29;98949.00;;;-0.87;61.71
64189;BME280;50493;50.970;10.082;2023-03-12T05:25:55;98953.97;;;-0.96;62.85
64189;BME280;50493;50.970;10.082;2023-03-12T05:28:21;98952.94;;;-1.08;63.59
64189;BME280;50493;50.970;10.082;2023-03-12T05:30:52;98945.75;;;-1.24;64.17
64189;BME280;50493;50.970;10.082;2023-03-12T05:33:18;98938.81;;;-1.30;64.45
64189;BME280;50493;50.970;10.082;2023-03-12T05:35:44;98935.69;;;-1.15;63.76
64189;BME280;50493;50.970;10.082;2023-03-12T05:38:09;98935.59;;;-1.20;64.07
64189;BME280;50493;50.970;10.082;2023-03-12T05:40:34;98937.09;;;-1.31;64.79
64189;BME280;50493;50.970;10.082;2023-03-12T05:43:00;98932.88;;;-1.27;64.48
64189;BME280;50493;50.970;10.082;2023-03-12T05:45:25;98934.03;;;-1.11;63.76
64189;BME280;50493;50.970;10.082;2023-03-12T05:47:50;98938.25;;;-1.15;63.96
64189;BME280;50493;50.970;10.082;2023-03-12T05:50:17;98934.59;;;-1.29;64.44
64189;BME280;50493;50.970;10.082;2023-03-12T05:52:43;98939.81;;;-1.23;64.32
64189;BME280;50493;50.970;10.082;2023-03-12T05:55:08;98938.16;;;-1.21;64.13
64189;BME280;50493;50.970;10.082;2023-03-12T05:57:34;98927.28;;;-1.08;63.61
64189;BME280;50493;50.970;10.082;2023-03-12T05:59:59;98924.94;;;-0.95;63.09
64189;BME280;50493;50.970;10.082;2023-03-12T06:02:24;98919.09;;;-0.85;62.43
64189;BME280;50493;50.970;10.082;2023-03-12T06:04:50;98921.50;;;-0.94;63.11
64189;BME280;50493;50.970;10.082;2023-03-12T06:07:16;98928.19;;;-1.03;63.13
64189;BME280;50493;50.970;10.082;2023-03-12T06:09:42;98926.69;;;-0.93;62.82
64189;BME280;50493;50.970;10.082;2023-03-12T06:12:07;98924.22;;;-0.85;62.24
64189;BME280;50493;50.970;10.082;2023-03-12T06:14:32;98918.47;;;-0.72;62.03
64189;BME280;50493;50.970;10.082;2023-03-12T06:16:58;98922.66;;;-0.77;62.43
64189;BME280;50493;50.970;10.082;2023-03-12T06:19:23;98921.81;;;-0.76;61.97
64189;BME280;50493;50.970;10.082;2023-03-12T06:21:49;98922.88;;;-0.65;62.17
64189;BME280;50493;50.970;10.082;2023-03-12T06:24:16;98917.81;;;-0.60;61.62
64189;BME280;50493;50.970;10.082;2023-03-12T06:26:41;98924.72;;;-0.54;61.08
64189;BME280;50493;50.970;10.082;2023-03-12T06:29:07;98918.25;;;-0.31;60.30
64189;BME280;50493;50.970;10.082;2023-03-12T06:31:32;98916.66;;;-0.24;60.35
64189;BME280;50493;50.970;10.082;2023-03-12T06:33:58;98920.72;;;-0.37;60.50
64189;BME280;50493;50.970;10.082;2023-03-12T06:36:23;98917.34;;;-0.33;60.02
64189;BME280;50493;50.970;10.082;2023-03-12T06:38:49;98906.69;;;0.01;58.89
64189;BME280;50493;50.970;10.082;2023-03-12T06:41:17;98907.50;;;-0.02;58.81
64189;BME280;50493;50.970;10.082;2023-03-12T06:43:44;98913.09;;;0.32;58.98
64189;BME280;50493;50.970;10.082;2023-03-12T06:46:12;98905.69;;;0.59;58.01
64189;BME280;50493;50.970;10.082;2023-03-12T06:48:38;98913.09;;;-0.32;59.22
64189;BME280;50493;50.970;10.082;2023-03-12T06:51:05;98916.16;;;-0.56;61.17
64189;BME280;50493;50.970;10.082;2023-03-12T06:53:31;98920.84;;;-0.83;61.61
64189;BME280;50493;50.970;10.082;2023-03-12T06:55:57;98917.97;;;0.14;58.44
64189;BME280;50493;50.970;10.082;2023-03-12T06:58:24;98914.16;;;0.51;57.45
64189;BME280;50493;50.970;10.082;2023-03-12T07:00:49;98917.25;;;0.23;58.67
64189;BME280;50493;50.970;10.082;2023-03-12T07:03:15;98917.03;;;0.07;58.85
64189;BME280;50493;50.970;10.082;2023-03-12T07:05:42;98914.78;;;0.30;58.44
64189;BME280;50493;50.970;10.082;2023-03-12T07:08:08;98914.84;;;0.36;57.49
64189;BME280;50493;50.970;10.082;2023-03-12T07:10:33;98913.78;;;0.97;55.90
64189;BME280;50493;50.970;10.082;2023-03-12T07:12:59;98911.25;;;2.34;52.99
64189;BME280;50493;50.970;10.082;2023-03-12T07:15:25;98906.31;;;3.43;49.81
64189;BME280;50493;50.970;10.082;2023-03-12T07:17:51;98912.34;;;3.65;46.54
64189;BME280;50493;50.970;10.082;2023-03-12T07:20:16;98910.44;;;4.32;49.20
64189;BME280;50493;50.970;10.082;2023-03-12T07:22:42;98901.88;;;4.19;45.61
64189;BME280;50493;50.970;10.082;2023-03-12T07:25:08;98894.22;;;3.82;46.94
64189;BME280;50493;50.970;10.082;2023-03-12T07:27:34;98884.81;;;3.17;47.71
64189;BME280;50493;50.970;10.082;2023-03-12T07:29:59;98879.22;;;4.66;48.10
64189;BME280;50493;50.970;10.082;2023-03-12T07:32:26;98877.00;;;5.37;44.63
64189;BME280;50493;50.970;10.082;2023-03-12T07:34:52;98868.00;;;4.68;46.71
64189;BME280;50493;50.970;10.082;2023-03-12T07:37:17;98872.75;;;6.19;44.63
64189;BME280;50493;50.970;10.082;2023-03-12T07:39:43;98860.94;;;7.19;39.96
64189;BME280;50493;50.970;10.082;2023-03-12T07:42:09;98855.97;;;8.87;37.56
64189;BME280;50493;50.970;10.082;2023-03-12T07:44:36;98858.72;;;8.80;37.52
64189;BME280;50493;50.970;10.082;2023-03-12T07:47:02;98858.44;;;8.54;38.15
64189;BME280;50493;50.970;10.082;2023-03-12T07:49:29;98852.47;;;10.23;41.56
64189;BME280;50493;50.970;10.082;2023-03-12T07:51:54;98841.91;;;10.27;36.21
64189;BME280;50493;50.970;10.082;2023-03-12T07:54:19;98834.13;;;9.63;34.67
64189;BME280;50493;50.970;10.082;2023-03-12T07:56:45;98832.00;;;8.32;38.75
64189;BME280;50493;50.970;10.082;2023-03-12T07:59:10;98836.09;;;7.56;38.39
64189;BME280;50493;50.970;10.082;2023-03-12T08:01:36;98846.25;;;7.17;41.09
64189;BME280;50493;50.970;10.082;2023-03-12T08:04:01;98839.09;;;7.31;40.27
64189;BME280;50493;50.970;10.082;2023-03-12T08:06:28;98841.31;;;6.42;41.66
64189;BME280;50493;50.970;10.082;2023-03-12T08:08:54;98843.13;;;5.62;43.17
64189;BME280;50493;50.970;10.082;2023-03-12T08:11:20;98834.91;;;5.07;45.37
64189;BME280;50493;50.970;10.082;2023-03-12T08:13:45;98832.59;;;5.74;43.16
64189;BME280;50493;50.970;10.082;2023-03-12T08:16:11;98826.22;;;6.03;43.82
64189;BME280;50493;50.970;10.082;2023-03-12T08:18:36;98823.06;;;5.75;43.89
64189;BME280;50493;50.970;10.082;2023-03-12T08:21:02;98825.72;;;5.70;42.36
64189;BME280;50493;50.970;10.082;2023-03-12T08:23:29;98822.09;;;5.87;42.16
64189;BME280;50493;50.970;10.082;2023-03-12T08:25:54;98829.00;;;5.85;43.81
64189;BME280;50493;50.970;10.082;2023-03-12T08:28:21;98835.28;;;5.65;41.12
64189;BME280;50493;50.970;10.082;2023-03-12T08:30:49;98831.31;;;5.24;41.51
64189;BME280;50493;50.970;10.082;2023-03-12T08:33:15;98822.69;;;5.25;41.77
64189;BME280;50493;50.970;10.082;2023-03-12T08:35:40;98820.69;;;5.55;41.57
64189;BME280;50493;50.970;10.082;2023-03-12T08:38:06;98810.06;;;5.80;42.02
64189;BME280;50493;50.970;10.082;2023-03-12T08:40:33;98812.13;;;5.47;43.49
64189;BME280;50493;50.970;10.082;2023-03-12T08:42:58;98815.31;;;5.73;44.02
64189;BME280;50493;50.970;10.082;2023-03-12T08:45:23;98814.88;;;5.26;45.85
64189;BME280;50493;50.970;10.082;2023-03-12T08:47:49;98814.16;;;5.12;42.89
64189;BME280;50493;50.970;10.082;2023-03-12T08:50:14;98811.72;;;4.95;45.46
64189;BME280;50493;50.970;10.082;2023-03-12T08:52:41;98812.50;;;5.06;44.22
64189;BME280;50493;50.970;10.082;2023-03-12T08:55:07;98814.03;;;5.26;43.59
64189;BME280;50493;50.970;10.082;2023-03-12T08:57:34;98824.34;;;4.02;47.25
64189;BME280;50493;50.970;10.082;2023-03-12T08:59:59;98819.00;;;4.40;45.86
64189;BME280;50493;50.970;10.082;2023-03-12T09:02:24;98816.47;;;4.25;48.63
64189;BME280;50493;50.970;10.082;2023-03-12T09:04:50;98801.13;;;5.18;44.94
64189;BME280;50493;50.970;10.082;2023-03-12T09:07:16;98795.81;;;5.35;43.58
64189;BME280;50493;50.970;10.082;2023-03-12T09:09:44;98798.31;;;5.48;43.17
64189;BME280;50493;50.970;10.082;2023-03-12T09:12:10;98788.72;;;5.56;44.57
64189;BME280;50493;50.970;10.082;2023-03-12T09:14:36;98793.34;;;5.20;42.56
64189;BME280;50493;50.970;10.082;2023-03-12T09:17:02;98790.72;;;5.26;45.19
64189;BME280;50493;50.970;10.082;2023-03-12T09:19:27;98783.41;;;5.67;44.29
64189;BME280;50493;50.970;10.082;2023-03-12T09:21:53;98790.59;;;5.37;45.03
64189;BME280;50493;50.970;10.082;2023-03-12T09:24:18;98788.88;;;5.36;43.69
64189;BME280;50493;50.970;10.082;2023-03-12T09:26:43;98784.44;;;5.52;45.02
64189;BME280;50493;50.970;10.082;2023-03-12T09:29:09;98784.28;;;5.64;43.50
64189;BME280;50493;50.970;10.082;2023-03-12T09:31:35;98787.06;;;5.46;44.25
64189;BME280;50493;50.970;10.082;2023-03-12T09:34:01;98777.38;;;5.66;44.05
64189;BME280;50493;50.970;10.082;2023-03-12T09:36:26;98779.06;;;5.67;45.17
64189;BME280;50493;50.970;10.082;2023-03-12T09:38:53;98777.53;;;5.51;43.28
64189;BME280;50493;50.970;10.082;2023-03-12T09:41:20;98778.06;;;5.79;45.03
64189;BME280;50493;50.970;10.082;2023-03-12T09:43:49;98770.81;;;5.26;45.05
64189;BME280;50493;50.970;10.082;2023-03-12T09:46:20;98772.03;;;5.79;45.94
64189;BME280;50493;50.970;10.082;2023-03-12T09:48:50;98766.66;;;5.92;45.67
64189;BME280;50493;50.970;10.082;2023-03-12T09:51:21;98767.06;;;6.29;43.55
64189;BME280;50493;50.970;10.082;2023-03-12T09:53:48;98769.69;;;6.27;43.01
64189;BME280;50493;50.970;10.082;2023-03-12T09:56:17;98760.41;;;6.09;44.96
64189;BME280;50493;50.970;10.082;2023-03-12T09:58:44;98761.50;;;5.91;44.87
64189;BME280;50493;50.970;10.082;2023-03-12T10:01:27;98760.03;;;5.68;45.55
64189;BME280;50493;50.970;10.082;2023-03-12T10:04:12;98756.28;;;5.94;45.03
64189;BME280;50493;50.970;10.082;2023-03-12T10:06:42;98765.47;;;5.47;45.78
64189;BME280;50493;50.970;10.082;2023-03-12T10:09:21;98765.38;;;5.56;47.22
64189;BME280;50493;50.970;10.082;2023-03-12T10:11:53;98752.91;;;5.05;46.89
64189;BME280;50493;50.970;10.082;2023-03-12T10:14:31;98741.06;;;4.76;49.31
64189;BME280;50493;50.970;10.082;2023-03-12T10:17:14;98723.56;;;5.04;46.88
64189;BME280;50493;50.970;10.082;2023-03-12T10:19:56;98715.25;;;5.57;46.11
64189;BME280;50493;50.970;10.082;2023-03-12T10:22:33;98722.28;;;5.42;48.59
64189;BME280;50493;50.970;10.082;2023-03-12T10:25:09;98719.28;;;5.81;46.64
64189;BME280;50493;50.970;10.082;2023-03-12T10:27:40;98719.97;;;5.92;46.04
64189;BME280;50493;50.970;10.082;2023-03-12T10:30:15;98716.66;;;5.83;46.13
64189;BME280;50493;50.970;10.082;2023-03-12T10:32:45;98720.59;;;5.38;47.28
64189;BME280;50493;50.970;10.082;2023-03-12T10:35:17;98709.16;;;5.61;47.81
64189;BME280;50493;50.970;10.082;2023-03-12T10:37:45;98718.78;;;5.50;47.00
64189;BME280;50493;50.970;10.082;2023-03-12T10:40:13;98723.94;;;5.53;48.16
64189;BME280;50493;50.970;10.082;2023-03-12T10:42:39;98717.06;;;5.49;48.55
64189;BME280;50493;50.970;10.082;2023-03-12T10:45:17;98715.97;;;5.68;47.79
64189;BME280;50493;50.970;10.082;2023-03-12T10:47:47;98712.06;;;5.30;47.26
64189;BME280;50493;50.970;10.082;2023-03-12T10:50:18;98706.78;;;5.39;48.47
64189;BME280;50493;50.970;10.082;2023-03-12T10:52:45;98708.47;;;5.43;49.46
64189;BME280;50493;50.970;10.082;2023-03-12T10:55:15;98719.91;;;5.25;49.03
64189;BME280;50493;50.970;10.082;2023-03-12T10:57:44;98722.38;;;5.33;49.00
64189;BME280;50493;50.970;10.082;2023-03-12T11:00:17;98716.19;;;5.48;48.01
64189;BME280;50493;50.970;10.082;2023-03-12T11:02:44;98713.53;;;5.54;48.11
64189;BME280;50493;50.970;10.082;2023-03-12T11:05:21;98712.84;;;5.37;49.92
64189;BME280;50493;50.970;10.082;2023-03-12T11:07:47;98712.63;;;5.58;47.66
64189;BME280;50493;50.970;10.082;2023-03-12T11:10:21;98712.78;;;5.46;49.07
64189;BME280;50493;50.970;10.082;2023-03-12T11:12:52;98707.41;;;5.60;48.49
64189;BME280;50493;50.970;10.082;2023-03-12T11:15:20;98713.81;;;5.30;47.59
64189;BME280;50493;50.970;10.082;2023-03-12T11:17:46;98711.94;;;5.41;47.63
64189;BME280;50493;50.970;10.082;2023-03-12T11:20:26;98709.94;;;5.66;48.20
64189;BME280;50493;50.970;10.082;2023-03-12T11:22:52;98718.59;;;5.65;48.00
64189;BME280;50493;50.970;10.082;2023-03-12T11:25:23;98705.63;;;5.67;48.19
64189;BME280;50493;50.970;10.082;2023-03-12T11:27:52;98715.75;;;5.85;47.06
64189;BME280;50493;50.970;10.082;2023-03-12T11:30:21;98707.31;;;5.69;49.71
64189;BME280;50493;50.970;10.082;2023-03-12T11:32:48;98703.72;;;5.81;50.80
64189;BME280;50493;50.970;10.082;2023-03-12T11:35:17;98706.34;;;5.76;49.43
64189;BME280;50493;50.970;10.082;2023-03-12T11:37:56;98711.66;;;5.69;51.01
64189;BME280;50493;50.970;10.082;2023-03-12T11:40:37;98710.31;;;5.32;53.11
64189;BME280;50493;50.970;10.082;2023-03-12T11:43:16;98710.41;;;5.23;52.89
64189;BME280;50493;50.970;10.082;2023-03-12T11:45:51;98707.16;;;5.02;55.26
64189;BME280;50493;50.970;10.082;2023-03-12T11:48:32;98698.56;;;5.00;56.55
64189;BME280;50493;50.970;10.082;2023-03-12T11:51:13;98693.06;;;5.31;56.10
64189;BME280;50493;50.970;10.082;2023-03-12T11:53:53;98702.47;;;5.38;55.78
64189;BME280;50493;50.970;10.082;2023-03-12T11:56:25;98691.56;;;5.08;57.82
64189;BME280;50493;50.970;10.082;2023-03-12T11:59:02;98693.25;;;5.13;56.63
64189;BME280;50493;50.970;10.082;2023-03-12T12:01:42;98708.84;;;4.02;62.14
64189;BME280;50493;50.970;10.082;2023-03-12T12:04:33;98707.97;;;4.00;63.67
64189;BME280;50493;50.970;10.082;2023-03-12T12:07:08;98695.13;;;3.86;66.15
64189;BME280;50493;50.970;10.082;2023-03-12T12:09:44;98706.53;;;3.33;68.38
64189;BME280;50493;50.970;10.082;2023-03-12T12:12:23;98703.16;;;2.95;71.52
64189;BME280;50493;50.970;10.082;2023-03-12T12:14:59;98692.78;;;3.26;71.08
64189;BME280;50493;50.970;10.082;2023-03-12T12:17:40;98677.31;;;3.17;68.17
64189;BME280;50493;50.970;10.082;2023-03-12T12:20:20;98679.88;;;3.26;71.44
64189;BME280;50493;50.970;10.082;2023-03-12T12:22:59;98663.53;;;3.21;70.46
64189;BME280;50493;50.970;10.082;2023-03-12T12:25:44;98669.53;;;3.32;70.40
64189;BME280;50493;50.970;10.082;2023-03-12T12:28:23;98659.88;;;3.68;70.78
64189;BME280;50493;50.970;10.082;2023-03-12T12:30:59;98651.44;;;3.35;72.74
64189;BME280;50493;50.970;10.082;2023-03-12T12:33:38;98654.84;;;3.42;73.37
64189;BME280;50493;50.970;10.082;2023-03-12T12:36:08;98655.59;;;3.63;72.70
64189;BME280;50493;50.970;10.082;2023-03-12T12:38:36;98662.69;;;3.14;74.15
64189;BME280;50493;50.970;10.082;2023-03-12T12:41:08;98661.69;;;3.48;70.91
64189;BME280;50493;50.970;10.082;2023-03-12T12:43:36;98661.72;;;3.45;73.02
64189;BME280;50493;50.970;10.082;2023-03-12T12:46:04;98654.88;;;3.34;74.22
64189;BME280;50493;50.970;10.082;2023-03-12T12:48:33;98653.19;;;3.21;71.94
64189;BME280;50493;50.970;10.082;2023-03-12T12:51:01;98652.25;;;3.42;73.13
64189;BME280;50493;50.970;10.082;2023-03-12T12:53:31;98653.13;;;3.39;71.49
64189;BME280;50493;50.970;10.082;2023-03-12T12:56:10;98654.03;;;3.32;72.99
64189;BME280;50493;50.970;10.082;2023-03-12T12:59:17;98659.22;;;3.31;74.59